createdAt,value
2023-04-08T00:00:00.847Z,258.53
2023-04-08T00:05:03.676Z,258.10
2023-04-08T00:10:07.159Z,258.37
2023-04-08T00:15:10.693Z,261.50
2023-04-08T00:20:13.313Z,225.77
2023-04-08T00:25:16.142Z,204.57
2023-04-08T00:30:18.838Z,203.10
2023-04-08T00:35:21.984Z,204.80
2023-04-08T00:40:25.038Z,211.50
2023-04-08T00:45:27.822Z,239.50
2023-04-08T00:50:30.782Z,254.10
2023-04-08T00:55:33.356Z,257.00
2023-04-08T01:00:43.167Z,259.47
2023-04-08T01:06:26.425Z,205.73
2023-04-08T01:11:34.533Z,249.27
2023-04-08T01:16:42.612Z,256.40
2023-04-08T01:21:45.909Z,200.33
2023-04-08T01:26:50.185Z,208.17
2023-04-08T01:31:55.196Z,201.87
2023-04-08T01:36:59.636Z,251.90
2023-04-08T01:42:03.001Z,254.60
2023-04-08T01:47:05.936Z,261.23
2023-04-08T01:52:10.784Z,259.73
2023-04-08T01:57:21.202Z,224.03
2023-04-08T02:02:26.804Z,203.13
2023-04-08T02:07:29.488Z,251.70
2023-04-08T02:12:33.697Z,258.47
2023-04-08T02:17:47.435Z,262.30
2023-04-08T02:23:06.014Z,201.30
2023-04-08T02:28:11.725Z,259.13
2023-04-08T02:33:15.081Z,214.03
2023-04-08T02:38:17.760Z,201.80
2023-04-08T02:43:20.579Z,202.50
2023-04-08T02:48:23.564Z,204.40
2023-04-08T02:53:26.683Z,217.83
2023-04-08T02:58:29.586Z,250.87
2023-04-08T03:03:32.430Z,255.53
2023-04-08T03:08:35.099Z,261.97
2023-04-08T03:13:38.011Z,260.87
2023-04-08T03:18:40.544Z,259.00
2023-04-08T03:23:43.048Z,238.17
2023-04-08T03:28:45.645Z,202.17
2023-04-08T03:33:48.309Z,200.20
2023-04-08T03:38:51.289Z,202.37
2023-04-08T03:43:54.349Z,206.33
2023-04-08T03:48:56.887Z,224.90
2023-04-08T03:53:59.424Z,250.87
2023-04-08T03:59:02.075Z,254.07
2023-04-08T04:04:04.961Z,251.23
2023-04-08T04:09:07.636Z,255.37
2023-04-08T04:14:10.171Z,266.07
2023-04-08T04:19:12.760Z,243.73
2023-04-08T04:24:15.554Z,203.43
2023-04-08T04:29:18.076Z,210.00
2023-04-08T04:34:20.834Z,205.10
2023-04-08T04:39:23.690Z,203.07
2023-04-08T04:44:26.325Z,217.80
2023-04-08T04:49:29.023Z,248.20
2023-04-08T04:54:31.508Z,261.67
2023-04-08T04:59:34.005Z,252.37
2023-04-08T05:04:36.665Z,252.90
2023-04-08T05:09:39.235Z,261.20
2023-04-08T05:14:42.450Z,251.33
2023-04-08T05:19:45.013Z,216.27
2023-04-08T05:24:47.545Z,204.00
2023-04-08T05:29:50.076Z,205.63
2023-04-08T05:34:52.987Z,205.20
2023-04-08T05:39:55.724Z,211.70
2023-04-08T05:44:58.381Z,233.63
2023-04-08T05:50:00.975Z,249.37
2023-04-08T05:55:03.613Z,255.17
2023-04-08T06:00:08.787Z,251.43
2023-04-08T06:05:12.536Z,244.67
2023-04-08T06:10:15.206Z,212.27
2023-04-08T06:15:17.833Z,204.10
2023-04-08T06:20:21.040Z,196.33
2023-04-08T06:25:24.147Z,205.20
2023-04-08T06:30:26.876Z,225.27
2023-04-08T06:35:29.735Z,253.90
2023-04-08T06:40:32.481Z,259.93
2023-04-08T06:45:35.641Z,260.27
2023-04-08T06:50:38.190Z,263.73
2023-04-08T06:55:40.946Z,264.47
2023-04-08T07:00:43.900Z,241.33
2023-04-08T07:05:47.411Z,203.87
2023-04-08T07:10:52.394Z,197.80
2023-04-08T07:15:55.286Z,209.83
2023-04-08T07:20:58.081Z,245.17
2023-04-08T07:26:06.514Z,267.43
2023-04-08T07:31:18.997Z,267.53
2023-04-08T07:36:21.957Z,207.93
2023-04-08T07:41:24.806Z,213.33
2023-04-08T07:46:27.492Z,236.87
2023-04-08T07:51:30.240Z,260.07
2023-04-08T07:56:32.904Z,278.63
2023-04-08T08:01:36.108Z,266.40
2023-04-08T08:06:38.774Z,266.10
2023-04-08T08:11:41.467Z,274.20
2023-04-08T08:16:44.848Z,242.83
2023-04-08T08:21:47.636Z,214.00
2023-04-08T08:26:50.253Z,214.37
2023-04-08T08:31:53.370Z,205.60
2023-04-08T08:36:56.238Z,229.90
2023-04-08T08:42:01.737Z,266.63
2023-04-08T08:47:05.490Z,269.80
2023-04-08T08:52:08.067Z,267.87
2023-04-08T08:57:21.200Z,272.70
2023-04-08T09:02:32.450Z,219.13
2023-04-08T09:07:41.966Z,291.83
2023-04-08T09:13:02.840Z,244.87
2023-04-08T09:18:23.583Z,277.47
2023-04-08T09:23:40.124Z,244.77
2023-04-08T09:28:44.013Z,270.37
2023-04-08T09:33:48.388Z,222.57
2023-04-08T09:38:51.461Z,223.33
2023-04-08T09:43:59.047Z,223.33
2023-04-08T09:49:15.948Z,274.37
2023-04-08T09:54:23.521Z,222.33
2023-04-08T09:59:28.237Z,241.20
2023-04-08T10:04:32.985Z,280.57
2023-04-08T10:09:38.316Z,292.67
2023-04-08T10:14:40.888Z,294.33
2023-04-08T10:19:43.491Z,274.80
2023-04-08T10:25:18.402Z,235.47
2023-04-08T10:30:31.767Z,235.53
2023-04-08T10:35:37.231Z,289.80
2023-04-08T10:40:42.827Z,291.00
2023-04-08T10:45:51.687Z,245.13
2023-04-08T10:50:59.712Z,235.13
2023-04-08T10:56:15.243Z,286.13
2023-04-08T11:01:18.546Z,228.63
2023-04-08T11:06:21.157Z,229.00
2023-04-08T11:11:29.647Z,228.47
2023-04-08T11:16:32.982Z,276.87
2023-04-08T11:21:39.203Z,280.30
2023-04-08T11:26:42.335Z,281.70
2023-04-08T11:31:45.334Z,246.07
2023-04-08T11:36:48.002Z,237.80
2023-04-08T11:41:50.657Z,222.37
2023-04-08T11:46:57.541Z,229.70
2023-04-08T11:52:03.665Z,272.87
2023-04-08T11:57:06.727Z,274.20
2023-04-08T12:02:09.397Z,270.67
2023-04-08T12:07:12.160Z,278.57
2023-04-08T12:12:14.799Z,258.07
2023-04-08T12:17:17.495Z,226.33
2023-04-08T12:22:20.748Z,228.27
2023-04-08T12:27:23.946Z,225.20
2023-04-08T12:32:26.885Z,236.50
2023-04-08T12:37:29.500Z,265.30
2023-04-08T12:42:32.067Z,281.23
2023-04-08T12:47:34.655Z,282.27
2023-04-08T12:52:37.390Z,277.93
2023-04-08T12:57:40.160Z,282.03
2023-04-08T13:02:42.942Z,269.40
2023-04-08T13:07:47.355Z,240.27
2023-04-08T13:12:50.682Z,231.30
2023-04-08T13:17:54.559Z,228.77
2023-04-08T13:22:57.436Z,246.20
2023-04-08T13:28:00.042Z,276.70
2023-04-08T13:33:02.676Z,273.70
2023-04-08T13:38:05.260Z,279.43
2023-04-08T13:43:08.386Z,293.67
2023-04-08T13:48:11.064Z,280.00
2023-04-08T13:53:13.984Z,264.97
2023-04-08T13:58:23.524Z,231.53
2023-04-08T14:03:28.260Z,241.97
2023-04-08T14:08:31.149Z,283.57
2023-04-08T14:13:34.102Z,272.77
2023-04-08T14:18:37.834Z,281.77
2023-04-08T14:23:40.567Z,285.20
2023-04-08T14:28:43.183Z,265.17
2023-04-08T14:33:45.832Z,234.53
2023-04-08T14:38:48.443Z,229.10
2023-04-08T14:43:50.998Z,227.73
2023-04-08T14:48:54.203Z,227.10
2023-04-08T14:53:56.956Z,241.27
2023-04-08T14:58:59.505Z,269.93
2023-04-08T15:04:02.328Z,277.57
2023-04-08T15:09:04.942Z,274.77
2023-04-08T15:14:07.691Z,278.43
2023-04-08T15:19:10.596Z,277.03
2023-04-08T15:24:14.261Z,262.40
2023-04-08T15:29:17.216Z,227.07
2023-04-08T15:34:19.886Z,225.57
2023-04-08T15:39:23.114Z,220.67
2023-04-08T15:44:26.202Z,226.10
2023-04-08T15:49:28.824Z,250.07
2023-04-08T15:54:32.364Z,272.00
2023-04-08T15:59:35.191Z,270.80
2023-04-08T16:04:37.806Z,271.30
2023-04-08T16:09:40.479Z,277.77
2023-04-08T16:14:43.133Z,264.07
2023-04-08T16:19:45.747Z,229.77
2023-04-08T16:24:48.378Z,214.73
2023-04-08T16:29:51.197Z,220.03
2023-04-08T16:34:54.505Z,217.97
2023-04-08T16:39:57.839Z,232.77
2023-04-08T16:45:01.367Z,268.57
2023-04-08T16:50:05.572Z,274.90
2023-04-08T16:55:08.723Z,274.60
2023-04-08T17:00:12.131Z,271.93
2023-04-08T17:05:14.896Z,237.37
2023-04-08T17:10:17.539Z,215.47
2023-04-08T17:15:20.104Z,216.60
2023-04-08T17:20:22.993Z,220.10
2023-04-08T17:25:26.382Z,215.80
2023-04-08T17:30:29.053Z,260.00
2023-04-08T17:35:31.867Z,263.33
2023-04-08T17:40:34.545Z,277.87
2023-04-08T17:45:37.428Z,272.23
2023-04-08T17:50:40.001Z,269.83
2023-04-08T17:55:42.791Z,262.60
2023-04-08T18:00:45.381Z,234.57
2023-04-08T18:05:47.962Z,217.33
2023-04-08T18:10:50.865Z,214.17
2023-04-08T18:15:53.982Z,213.63
2023-04-08T18:20:56.862Z,223.27
2023-04-08T18:25:59.432Z,255.13
2023-04-08T18:31:02.296Z,260.37
2023-04-08T18:36:12.893Z,260.83
2023-04-08T18:41:16.528Z,232.57
2023-04-08T18:46:20.127Z,210.87
2023-04-08T18:51:23.602Z,211.23
2023-04-08T18:56:26.859Z,218.77
2023-04-08T19:01:31.953Z,247.20
2023-04-08T19:06:36.152Z,266.40
2023-04-08T19:11:38.694Z,263.40
2023-04-08T19:16:41.774Z,263.87
2023-04-08T19:21:44.638Z,243.77
2023-04-08T19:26:49.511Z,212.67
2023-04-08T19:31:53.160Z,212.50
2023-04-08T19:36:56.341Z,218.47
2023-04-08T19:41:58.948Z,241.50
2023-04-08T19:47:01.651Z,261.93
2023-04-08T19:52:04.226Z,265.50
2023-04-08T19:57:09.445Z,266.63
2023-04-08T20:02:12.137Z,267.53
2023-04-08T20:07:14.793Z,241.97
2023-04-08T20:12:17.793Z,208.07
2023-04-08T20:17:21.106Z,205.90
2023-04-08T20:22:24.208Z,207.60
2023-04-08T20:27:27.899Z,213.37
2023-04-08T20:32:30.940Z,259.73
2023-04-08T20:37:33.863Z,276.33
2023-04-08T20:42:36.689Z,270.17
2023-04-08T20:47:39.443Z,266.00
2023-04-08T20:52:42.067Z,269.60
2023-04-08T20:57:44.730Z,241.23
2023-04-08T21:02:48.073Z,206.87
2023-04-08T21:07:51.058Z,207.53
2023-04-08T21:12:53.968Z,210.97
2023-04-08T21:17:56.754Z,209.27
2023-04-08T21:23:00.703Z,243.40
2023-04-08T21:28:03.233Z,258.03
2023-04-08T21:33:05.975Z,262.23
2023-04-08T21:38:08.556Z,260.83
2023-04-08T21:43:11.226Z,263.73
2023-04-08T21:48:13.816Z,252.00
2023-04-08T21:53:16.900Z,206.43
2023-04-08T21:58:19.704Z,204.13
2023-04-08T22:03:22.670Z,204.43
2023-04-08T22:08:25.698Z,201.70
2023-04-08T22:13:28.424Z,226.33
2023-04-08T22:18:31.032Z,246.90
2023-04-08T22:23:33.603Z,257.10
2023-04-08T22:28:36.882Z,252.40
2023-04-08T22:33:40.373Z,257.07
2023-04-08T22:38:43.022Z,261.80
2023-04-08T22:43:45.893Z,229.97
2023-04-08T22:48:49.833Z,199.40
2023-04-08T22:53:52.912Z,199.77
2023-04-08T22:58:56.410Z,196.73
2023-04-08T23:03:58.994Z,225.47
2023-04-08T23:09:01.661Z,252.70
2023-04-08T23:14:04.249Z,254.20
2023-04-08T23:19:07.122Z,261.47
2023-04-08T23:24:10.489Z,257.17
2023-04-08T23:29:13.110Z,252.20
2023-04-08T23:34:16.157Z,215.63
2023-04-08T23:39:20.076Z,199.13
2023-04-08T23:44:22.844Z,201.37
2023-04-08T23:49:25.754Z,194.80
2023-04-08T23:54:32.976Z,225.43
2023-04-08T23:59:35.665Z,250.60
